Kootwijkerbroek, Netherlands
Current Conditions -  °F | °C
As of 8:25 AM on Saturday 25 Oct 2014 (Local Time) from EHDL Reporting Station
Haze Haze  
Wind Chill: 54°   Ceiling: 200
Heat Index: 54°   Visibility: 0.81mi
Dew Point: 54°   Wind: 8mph
Humidity: 100%   Direction: 210°SSW
Pressure: 30"   Gusts: NA
Location:  52.15°N, 5.67°E
Report Text: EHDL 250625Z AUTO 21007KT 1300 BR BKN002 OVC003 12/12 Q1016 AMB
Loading
Personal Weather Stations






























Interactive Weather Map
Tropical Storm Tracking
New forecast layout! Learn more

10-Day Weather Forecast

Advertisements
Track Severe Weather on mobile